createdAt,value
2023-01-30T00:01:07.262Z,100467.34
2023-01-30T00:03:35.307Z,100478.22
2023-01-30T00:06:02.809Z,100477.00
2023-01-30T00:08:30.006Z,100491.94
2023-01-30T00:10:58.242Z,100474.69
2023-01-30T00:13:25.477Z,100478.03
2023-01-30T00:15:52.937Z,100481.19
2023-01-30T00:18:20.005Z,100486.91
2023-01-30T00:20:47.737Z,100486.91
2023-01-30T00:23:15.136Z,100490.31
2023-01-30T00:25:46.136Z,100496.94
2023-01-30T00:28:13.567Z,100491.47
2023-01-30T00:30:42.256Z,100491.84
2023-01-30T00:33:16.387Z,100498.38
2023-01-30T00:35:49.034Z,100490.06
2023-01-30T00:38:17.191Z,100426.16
2023-01-30T00:40:45.074Z,100492.78
2023-01-30T00:43:33.512Z,100494.75
2023-01-30T00:46:21.497Z,100490.75
2023-01-30T00:49:07.401Z,100483.88
2023-01-30T00:51:35.358Z,100458.22
2023-01-30T00:54:02.542Z,100477.47
2023-01-30T00:56:32.045Z,100478.78
2023-01-30T00:58:59.350Z,100464.53
2023-01-30T01:01:45.354Z,100468.28
2023-01-30T01:04:13.719Z,100464.78
2023-01-30T01:06:41.593Z,100464.56
2023-01-30T01:09:08.822Z,100454.16
2023-01-30T01:11:36.451Z,100474.50
2023-01-30T01:14:05.743Z,100462.63
2023-01-30T01:16:34.656Z,100475.78
2023-01-30T01:19:02.391Z,100461.41
2023-01-30T01:21:29.941Z,100458.53
2023-01-30T01:24:00.555Z,100468.31
2023-01-30T01:26:28.551Z,100459.25
2023-01-30T01:28:57.696Z,100464.56
2023-01-30T01:31:25.996Z,100454.88
2023-01-30T01:33:56.971Z,100460.44
2023-01-30T01:36:51.508Z,100447.28
2023-01-30T01:39:13.536Z,100436.97
2023-01-30T01:41:41.269Z,100439.78
2023-01-30T01:44:11.283Z,100442.56
2023-01-30T01:46:51.980Z,100429.50
2023-01-30T01:49:30.920Z,100418.34
2023-01-30T01:52:27.270Z,100426.81
2023-01-30T01:54:59.847Z,100423.69
2023-01-30T01:57:34.072Z,100420.53
2023-01-30T02:00:13.001Z,100435.75
2023-01-30T02:02:43.994Z,100407.72
2023-01-30T02:05:14.238Z,100413.66
2023-01-30T02:07:48.971Z,100411.13
2023-01-30T02:10:23.727Z,100412.31
2023-01-30T02:12:54.078Z,100407.00
2023-01-30T02:15:22.431Z,100407.47
2023-01-30T02:17:50.160Z,100405.41
2023-01-30T02:20:36.219Z,100408.59
2023-01-30T02:23:22.715Z,100409.06
2023-01-30T02:26:26.272Z,100403.97
2023-01-30T02:29:32.898Z,100391.63
2023-01-30T02:32:20.985Z,100383.91
2023-01-30T02:34:59.427Z,100384.13
2023-01-30T02:37:45.301Z,100379.66
2023-01-30T02:40:25.357Z,100377.25
2023-01-30T02:43:05.028Z,100374.47
2023-01-30T02:45:35.965Z,100368.44
2023-01-30T02:48:07.912Z,100367.38
2023-01-30T02:50:39.815Z,100368.44
2023-01-30T02:53:09.074Z,100374.34
2023-01-30T02:55:40.121Z,100358.91
2023-01-30T02:58:09.036Z,100365.78
2023-01-30T03:01:06.237Z,100364.00
2023-01-30T03:04:07.298Z,100356.50
2023-01-30T03:07:10.243Z,100354.53
2023-01-30T03:10:17.979Z,100358.91
2023-01-30T03:13:00.256Z,100360.81
2023-01-30T03:15:38.942Z,100351.28
2023-01-30T03:18:07.906Z,100358.41
2023-01-30T03:20:42.091Z,100361.56
2023-01-30T03:23:09.837Z,100347.66
2023-01-30T03:25:40.053Z,100353.06
2023-01-30T03:28:09.245Z,100341.59
2023-01-30T03:30:37.219Z,100347.28
2023-01-30T03:33:09.646Z,100342.31
2023-01-30T03:35:40.354Z,100341.97
2023-01-30T03:38:10.699Z,100333.03
2023-01-30T03:40:38.259Z,100331.22
2023-01-30T03:43:05.962Z,100337.63
2023-01-30T03:45:36.168Z,100332.66
2023-01-30T03:48:03.753Z,100314.44
2023-01-30T03:50:31.679Z,100313.69
2023-01-30T03:53:00.333Z,100296.50
2023-01-30T03:55:27.652Z,100313.81
2023-01-30T03:57:57.052Z,100314.56
2023-01-30T04:00:27.252Z,100300.16
2023-01-30T04:02:57.140Z,100306.81
2023-01-30T04:05:25.216Z,100308.94
2023-01-30T04:07:59.192Z,100314.97
2023-01-30T04:10:27.297Z,100315.84
2023-01-30T04:12:54.892Z,100315.97
2023-01-30T04:15:24.078Z,100311.72
2023-01-30T04:18:10.059Z,100303.78
2023-01-30T04:20:58.772Z,100308.59
2023-01-30T04:23:33.770Z,100310.78
2023-01-30T04:26:01.021Z,100310.50
2023-01-30T04:28:28.561Z,100305.06
2023-01-30T04:30:55.826Z,100297.22
2023-01-30T04:33:41.026Z,100302.53
2023-01-30T04:36:10.707Z,100301.09
2023-01-30T04:38:38.939Z,100303.88
2023-01-30T04:41:08.038Z,100301.63
2023-01-30T04:43:39.912Z,100295.66
2023-01-30T04:46:46.265Z,100302.88
2023-01-30T04:49:15.129Z,100285.13
2023-01-30T04:51:43.538Z,100289.88
2023-01-30T04:54:10.991Z,100277.19
2023-01-30T04:56:42.649Z,100285.53
2023-01-30T04:59:10.733Z,100284.44
2023-01-30T05:01:42.936Z,100287.72
2023-01-30T05:04:29.045Z,100287.34
2023-01-30T05:06:56.204Z,100280.00
2023-01-30T05:09:23.615Z,100293.75
2023-01-30T05:11:50.738Z,100286.66
2023-01-30T05:14:18.210Z,100291.94
2023-01-30T05:16:45.362Z,100275.28
2023-01-30T05:19:13.968Z,100278.19
2023-01-30T05:21:41.335Z,100285.03
2023-01-30T05:24:09.059Z,100280.13
2023-01-30T05:26:36.219Z,100276.97
2023-01-30T05:29:03.753Z,100283.38
2023-01-30T05:31:30.938Z,100289.44
2023-01-30T05:33:58.443Z,100283.50
2023-01-30T05:36:25.574Z,100288.31
2023-01-30T05:38:53.230Z,100294.63
2023-01-30T05:41:20.600Z,100282.19
2023-01-30T05:43:51.964Z,100295.84
2023-01-30T05:46:20.001Z,100284.59
2023-01-30T05:48:48.071Z,100295.13
2023-01-30T05:51:26.108Z,100280.13
2023-01-30T05:53:53.796Z,100289.28
2023-01-30T05:56:21.142Z,100291.00
2023-01-30T05:58:56.657Z,100294.97
2023-01-30T06:01:26.099Z,100298.91
2023-01-30T06:03:54.052Z,100296.00
2023-01-30T06:06:22.741Z,100287.50
2023-01-30T06:08:57.867Z,100277.16
2023-01-30T06:11:26.807Z,100290.50
2023-01-30T06:13:54.891Z,100294.34
2023-01-30T06:16:23.125Z,100288.78
2023-01-30T06:18:51.717Z,100293.41
2023-01-30T06:21:19.160Z,100292.31
2023-01-30T06:23:46.857Z,100287.03
2023-01-30T06:26:15.831Z,100278.31
2023-01-30T06:28:47.252Z,100289.44
2023-01-30T06:31:17.143Z,100289.31
2023-01-30T06:33:45.698Z,100288.34
2023-01-30T06:36:14.385Z,100285.72
2023-01-30T06:38:43.235Z,100282.66
2023-01-30T06:41:11.719Z,100290.63
2023-01-30T06:43:44.576Z,100278.28
2023-01-30T06:46:12.206Z,100292.19
2023-01-30T06:48:39.825Z,100284.69
2023-01-30T06:51:08.191Z,100281.34
2023-01-30T06:53:44.018Z,100290.50
2023-01-30T06:56:12.947Z,100289.75
2023-01-30T06:58:57.756Z,100286.78
2023-01-30T07:01:28.949Z,100288.69
2023-01-30T07:04:00.508Z,100288.31
2023-01-30T07:06:30.812Z,100289.84
2023-01-30T07:08:59.845Z,100273.38
2023-01-30T07:11:28.957Z,100253.72
2023-01-30T07:13:59.953Z,100282.66
2023-01-30T07:16:30.305Z,100280.63
2023-01-30T07:18:59.316Z,100290.31
2023-01-30T07:21:29.089Z,100282.47
2023-01-30T07:23:56.878Z,100294.75
2023-01-30T07:26:25.080Z,100288.28
2023-01-30T07:28:52.576Z,100297.69
2023-01-30T07:31:19.767Z,100285.75
2023-01-30T07:33:47.281Z,100282.69
2023-01-30T07:36:20.262Z,100288.28
2023-01-30T07:38:50.865Z,100288.78
2023-01-30T07:41:24.441Z,100285.44
2023-01-30T07:43:56.179Z,100290.03
2023-01-30T07:46:26.272Z,100295.69
2023-01-30T07:49:23.079Z,100293.00
2023-01-30T07:51:54.995Z,100294.00
2023-01-30T07:54:28.647Z,100304.38
2023-01-30T07:57:09.182Z,100289.38
2023-01-30T07:59:38.273Z,100286.00
2023-01-30T08:02:09.456Z,100301.84
2023-01-30T08:04:47.309Z,100302.00
2023-01-30T08:07:26.589Z,100295.53
2023-01-30T08:10:12.026Z,100290.47
2023-01-30T08:12:41.082Z,100279.50
2023-01-30T08:15:11.069Z,100278.69
2023-01-30T08:17:40.323Z,100267.16
2023-01-30T08:20:09.594Z,100273.78
2023-01-30T08:22:37.517Z,100260.91
2023-01-30T08:25:08.649Z,100248.06
2023-01-30T08:30:35.477Z,100255.94
2023-01-30T08:33:06.137Z,100253.66
2023-01-30T08:35:47.187Z,100252.13
2023-01-30T08:38:14.530Z,100255.97
2023-01-30T08:40:48.680Z,100258.75
2023-01-30T08:43:28.216Z,100257.00
2023-01-30T08:46:04.259Z,100251.47
2023-01-30T08:48:49.846Z,100252.16
2023-01-30T08:51:19.005Z,100246.03
2023-01-30T08:53:50.273Z,100236.16
2023-01-30T08:56:39.152Z,100235.91
2023-01-30T08:59:11.579Z,100244.63
2023-01-30T09:01:45.469Z,100237.16
2023-01-30T09:04:13.042Z,100226.34
2023-01-30T09:06:41.336Z,100206.94
2023-01-30T09:09:08.941Z,100202.16
2023-01-30T09:11:37.260Z,100215.06
2023-01-30T09:14:13.407Z,100225.09
2023-01-30T09:16:57.786Z,100216.63
2023-01-30T09:19:28.436Z,100211.63
2023-01-30T09:21:56.388Z,100208.41
2023-01-30T09:24:26.779Z,100203.63
2023-01-30T09:27:02.763Z,100192.81
2023-01-30T09:29:37.179Z,100185.19
2023-01-30T09:32:14.043Z,100181.72
2023-01-30T09:34:52.834Z,100177.47
2023-01-30T09:37:23.599Z,100182.78
2023-01-30T09:40:11.799Z,100183.16
2023-01-30T09:43:25.400Z,100186.59
2023-01-30T09:46:43.955Z,100185.59
2023-01-30T09:49:28.978Z,100175.28
2023-01-30T09:52:18.853Z,100163.88
2023-01-30T09:54:46.633Z,100163.13
2023-01-30T09:57:22.557Z,100163.69
2023-01-30T10:00:01.930Z,100146.97
2023-01-30T10:02:58.870Z,100153.91
2023-01-30T10:05:44.298Z,100135.91
2023-01-30T10:08:36.296Z,100128.28
2023-01-30T10:11:41.355Z,100128.59
2023-01-30T10:14:43.969Z,100118.75
2023-01-30T10:17:57.988Z,100127.13
2023-01-30T10:20:53.904Z,100121.03
2023-01-30T10:23:50.701Z,100109.81
2023-01-30T10:26:32.578Z,100113.00
2023-01-30T10:29:26.329Z,100101.06
2023-01-30T10:32:10.238Z,100100.88
2023-01-30T10:34:56.445Z,100095.16
2023-01-30T10:37:42.505Z,100093.34
2023-01-30T10:40:26.921Z,100074.47
2023-01-30T10:43:26.071Z,100072.59
2023-01-30T10:46:24.673Z,100062.47
2023-01-30T10:49:16.720Z,100067.84
2023-01-30T10:52:25.138Z,100062.31
2023-01-30T10:55:10.909Z,100028.53
2023-01-30T10:57:55.264Z,100039.63
2023-01-30T11:01:07.881Z,100043.09
2023-01-30T11:03:46.952Z,100035.56
2023-01-30T11:06:19.123Z,100025.38
2023-01-30T11:08:46.432Z,100029.44
2023-01-30T11:11:27.557Z,100031.66
2023-01-30T11:14:09.476Z,100015.22
2023-01-30T11:16:53.399Z,100014.00
2023-01-30T11:19:24.949Z,100000.38
2023-01-30T11:22:00.094Z,99997.22
2023-01-30T11:24:46.672Z,99973.41
2023-01-30T11:27:33.659Z,99977.56
2023-01-30T11:30:18.292Z,99952.09
2023-01-30T11:32:53.460Z,99941.25
2023-01-30T11:35:28.263Z,99932.31
2023-01-30T11:38:13.018Z,99922.03
2023-01-30T11:40:43.831Z,99929.72
2023-01-30T11:43:21.648Z,99922.94
2023-01-30T11:45:51.573Z,99929.56
2023-01-30T11:49:35.664Z,99926.00
2023-01-30T11:51:58.635Z,99921.91
2023-01-30T11:54:34.865Z,99923.59
2023-01-30T11:57:11.407Z,99915.16
2023-01-30T11:59:59.684Z,99919.91
2023-01-30T12:02:48.711Z,99899.34
2023-01-30T12:05:31.357Z,99898.09
2023-01-30T12:08:57.052Z,99891.50
2023-01-30T12:12:01.707Z,99877.56
2023-01-30T12:14:45.885Z,99862.19
2023-01-30T12:17:30.407Z,99848.94
2023-01-30T12:20:26.850Z,99840.69
2023-01-30T12:23:17.262Z,99840.75
2023-01-30T12:26:01.119Z,99837.06
2023-01-30T12:29:01.707Z,99841.56
2023-01-30T12:31:39.145Z,99827.31
2023-01-30T12:34:09.822Z,99833.16
2023-01-30T12:37:16.076Z,99820.34
2023-01-30T12:39:43.972Z,99813.84
2023-01-30T12:42:23.814Z,99791.25
2023-01-30T12:45:11.953Z,99796.19
2023-01-30T12:48:17.236Z,99794.41
2023-01-30T12:50:58.787Z,99784.63
2023-01-30T12:54:28.512Z,99785.34
2023-01-30T12:57:12.924Z,99808.94
2023-01-30T12:59:45.566Z,99810.34
2023-01-30T13:02:44.531Z,99798.59
2023-01-30T13:05:35.127Z,99798.19
2023-01-30T13:08:33.725Z,99793.81
2023-01-30T13:11:32.467Z,99789.03
2023-01-30T13:14:06.228Z,99792.38
2023-01-30T13:17:20.501Z,99784.56
2023-01-30T13:20:22.535Z,99781.41
2023-01-30T13:23:06.458Z,99778.75
2023-01-30T13:25:43.958Z,99770.00
2023-01-30T13:28:26.072Z,99760.25
2023-01-30T13:31:00.319Z,99754.41
2023-01-30T13:33:42.523Z,99745.63
2023-01-30T13:36:37.309Z,99733.25
2023-01-30T13:39:32.162Z,99730.69
2023-01-30T13:42:26.679Z,99726.97
2023-01-30T13:44:58.781Z,99738.16
2023-01-30T13:47:26.325Z,99726.63
2023-01-30T13:50:36.378Z,99738.97
2023-01-30T13:54:03.693Z,99732.53
2023-01-30T13:56:49.172Z,99735.03
2023-01-30T14:00:12.810Z,99738.88
2023-01-30T14:03:07.427Z,99728.19
2023-01-30T14:06:15.474Z,99728.81
2023-01-30T14:08:45.290Z,99719.47
2023-01-30T14:11:35.432Z,99719.22
2023-01-30T14:14:42.079Z,99714.94
2023-01-30T14:17:16.243Z,99722.19
2023-01-30T14:20:21.744Z,99718.38
2023-01-30T14:23:06.497Z,99717.50
2023-01-30T14:25:44.547Z,99714.13
2023-01-30T14:28:20.488Z,99704.75
2023-01-30T14:31:05.385Z,99702.41
2023-01-30T14:33:47.860Z,99700.22
2023-01-30T14:36:21.073Z,99707.06
2023-01-30T14:39:17.337Z,99716.50
2023-01-30T14:42:07.393Z,99717.75
2023-01-30T14:45:00.138Z,99701.47
2023-01-30T14:47:47.132Z,99711.56
2023-01-30T14:50:24.795Z,99715.47
2023-01-30T14:52:56.600Z,99722.53
2023-01-30T14:55:29.823Z,99700.66
2023-01-30T14:58:06.428Z,99710.34
2023-01-30T15:00:38.505Z,99700.72
2023-01-30T15:03:37.742Z,99702.50
2023-01-30T15:06:38.743Z,99709.47
2023-01-30T15:09:20.294Z,99713.31
2023-01-30T15:12:03.844Z,99687.84
2023-01-30T15:14:53.941Z,99702.50
2023-01-30T15:17:52.721Z,99695.22
2023-01-30T15:20:39.377Z,99696.84
2023-01-30T15:23:44.606Z,99699.31
2023-01-30T15:26:49.849Z,99686.47
2023-01-30T15:29:58.310Z,99686.91
2023-01-30T15:32:29.623Z,99688.38
2023-01-30T15:35:24.761Z,99686.50
2023-01-30T15:37:57.433Z,99688.25
2023-01-30T15:40:29.916Z,99688.38
2023-01-30T15:43:23.126Z,99681.53
2023-01-30T15:46:23.892Z,99689.22
2023-01-30T15:49:01.457Z,99673.06
2023-01-30T15:51:42.703Z,99678.75
2023-01-30T15:54:17.034Z,99671.44
2023-01-30T15:56:49.924Z,99689.25
2023-01-30T15:59:45.603Z,99696.97
2023-01-30T16:02:28.533Z,99702.72
2023-01-30T16:05:18.432Z,99701.56
2023-01-30T16:07:48.588Z,99703.25
2023-01-30T16:10:22.278Z,99710.25
2023-01-30T16:12:54.731Z,99708.00
2023-01-30T16:16:02.609Z,99677.78
2023-01-30T16:18:47.596Z,99695.66
2023-01-30T16:21:41.318Z,99678.19
2023-01-30T16:24:26.161Z,99704.09
2023-01-30T16:27:31.606Z,99690.47
2023-01-30T16:30:07.811Z,99679.06
2023-01-30T16:32:53.472Z,99667.38
2023-01-30T16:35:34.045Z,99668.25
2023-01-30T16:38:05.815Z,99668.81
2023-01-30T16:41:27.248Z,99667.06
2023-01-30T16:44:29.010Z,99661.44
2023-01-30T16:47:42.714Z,99654.50
2023-01-30T16:50:25.851Z,99655.06
2023-01-30T16:52:55.392Z,99656.91
2023-01-30T16:55:27.773Z,99658.25
2023-01-30T16:58:10.125Z,99653.41
2023-01-30T17:00:41.202Z,99649.22
2023-01-30T17:03:39.428Z,99635.31
2023-01-30T17:06:27.380Z,99629.75
2023-01-30T17:08:58.875Z,99638.44
2023-01-30T17:14:38.206Z,99645.59
2023-01-30T17:17:19.405Z,99641.25
2023-01-30T17:20:05.599Z,99629.91
2023-01-30T17:27:20.906Z,99636.66
2023-01-30T17:30:48.735Z,99628.69
2023-01-30T17:33:47.335Z,99627.81
2023-01-30T17:36:41.228Z,99612.84
2023-01-30T17:42:34.770Z,99600.81
2023-01-30T17:47:23.181Z,99611.09
2023-01-30T17:50:30.363Z,99604.91
2023-01-30T18:01:46.375Z,99587.63
2023-01-30T18:04:23.904Z,99593.00
2023-01-30T18:11:04.145Z,99591.44
2023-01-30T18:14:08.399Z,99583.19
2023-01-30T18:20:34.873Z,99536.22
2023-01-30T18:23:52.692Z,99540.97
2023-01-30T18:31:17.840Z,99540.00
2023-01-30T18:50:15.806Z,99585.47
2023-01-30T18:53:43.268Z,99577.91
2023-01-30T18:57:10.517Z,99584.91
2023-01-30T19:00:10.228Z,99591.19
2023-01-30T19:07:02.949Z,99589.34
2023-01-30T19:10:53.411Z,99599.03
2023-01-30T19:14:13.128Z,99613.72
2023-01-30T19:17:21.143Z,99621.28
2023-01-30T19:20:31.407Z,99627.69
2023-01-30T19:27:19.738Z,99617.44
2023-01-30T19:29:53.857Z,99590.97
2023-01-30T19:32:34.163Z,99600.66
2023-01-30T19:35:11.835Z,99618.00
2023-01-30T19:38:04.187Z,99592.38
2023-01-30T19:41:13.592Z,99584.13
2023-01-30T19:44:25.592Z,99586.06
2023-01-30T19:47:27.119Z,99590.56
2023-01-30T19:50:23.430Z,99559.34
2023-01-30T19:53:10.251Z,99585.91
2023-01-30T19:55:59.346Z,99585.09
2023-01-30T19:58:48.204Z,99585.09
2023-01-30T20:08:37.360Z,99600.75
2023-01-30T20:11:37.420Z,99595.47
2023-01-30T20:14:51.267Z,99601.78
2023-01-30T20:18:14.987Z,99598.13
2023-01-30T20:21:19.150Z,99604.13
2023-01-30T20:24:28.538Z,99589.31
2023-01-30T20:27:18.663Z,99588.19
2023-01-30T20:30:20.312Z,99615.94
2023-01-30T20:33:09.409Z,99614.13
2023-01-30T20:36:47.834Z,99623.19
2023-01-30T20:39:22.281Z,99613.72
2023-01-30T20:41:56.177Z,99616.81
2023-01-30T20:44:28.616Z,99614.84
2023-01-30T20:46:57.889Z,99610.06
2023-01-30T20:49:41.182Z,99635.41
2023-01-30T20:52:24.538Z,99624.63
2023-01-30T20:55:02.604Z,99627.97
2023-01-30T20:57:38.705Z,99647.88
2023-01-30T21:00:23.490Z,99596.25
2023-01-30T21:03:51.122Z,99662.00
2023-01-30T21:10:02.905Z,99681.59
2023-01-30T21:12:41.175Z,99673.91
2023-01-30T21:15:20.386Z,99679.78
2023-01-30T21:17:57.912Z,99697.44
2023-01-30T21:20:36.925Z,99690.00
2023-01-30T21:23:35.682Z,99682.31
2023-01-30T21:26:19.963Z,99677.84
2023-01-30T21:29:03.174Z,99676.84
2023-01-30T21:31:51.526Z,99657.25
2023-01-30T21:34:51.790Z,99684.56
2023-01-30T21:37:43.358Z,99660.63
2023-01-30T21:44:00.438Z,99634.19
2023-01-30T21:47:24.789Z,99689.84
2023-01-30T21:50:08.383Z,99692.63
2023-01-30T21:53:06.906Z,99700.06
2023-01-30T21:56:14.109Z,99663.53
2023-01-30T21:59:18.199Z,99696.84
2023-01-30T22:02:27.868Z,99693.00
2023-01-30T22:05:33.343Z,99704.53
2023-01-30T22:08:21.592Z,99713.06
2023-01-30T22:11:39.863Z,99709.44
2023-01-30T22:14:18.791Z,99722.19
2023-01-30T22:17:08.083Z,99711.41
2023-01-30T22:19:43.482Z,99715.19
2023-01-30T22:22:24.936Z,99703.31
2023-01-30T22:24:57.187Z,99700.91
2023-01-30T22:27:26.487Z,99707.66
2023-01-30T22:30:00.233Z,99702.19
2023-01-30T22:32:46.392Z,99712.00
2023-01-30T22:35:22.174Z,99714.53
2023-01-30T22:38:01.831Z,99708.34
2023-01-30T22:40:30.038Z,99698.28
2023-01-30T22:43:04.897Z,99705.41
2023-01-30T22:46:07.133Z,99716.47
2023-01-30T22:48:39.432Z,99703.31
2023-01-30T22:51:11.474Z,99709.31
2023-01-30T22:53:48.881Z,99717.88
2023-01-30T22:56:18.495Z,99693.25
2023-01-30T22:58:47.047Z,99687.34
2023-01-30T23:01:21.499Z,99695.19
2023-01-30T23:04:15.316Z,99705.13
2023-01-30T23:06:43.670Z,99695.59
2023-01-30T23:09:42.585Z,99697.69
2023-01-30T23:12:31.598Z,99689.84
2023-01-30T23:15:03.069Z,99674.03
2023-01-30T23:17:50.623Z,99684.28
2023-01-30T23:20:48.704Z,99683.44
2023-01-30T23:23:17.460Z,99683.44
2023-01-30T23:25:45.063Z,99662.84
2023-01-30T23:28:12.533Z,99671.13
2023-01-30T23:30:40.615Z,99668.31
2023-01-30T23:33:08.065Z,99666.63
2023-01-30T23:35:40.262Z,99662.84
2023-01-30T23:38:16.417Z,99658.81
2023-01-30T23:40:45.166Z,99637.09
2023-01-30T23:43:17.852Z,99668.72
2023-01-30T23:45:45.549Z,99680.22
2023-01-30T23:48:12.882Z,99688.22
2023-01-30T23:50:43.213Z,99696.03
2023-01-30T23:53:15.180Z,99690.00
2023-01-30T23:55:53.398Z,99697.44
2023-01-30T23:58:22.230Z,99700.66
